Enter the Airport ICAO Code

Search by Airport or City

Current Weather

SBRF | Recife/Guararapes–Gilberto Freyre International Airport

Recife, Pernambuco, Brazil

Last Update 59 Minutes Ago

Clear Sky

Temperature of 23 ºC

Light Winds from NorthWest

Temperature

23 ºC

Dew Point Temperature

21 ºC

Relative Humidity

88.58 %

Wind Direction

NorthWest (320º, Without Significant Variations)

Wind Velocity

6 km/h (03 kt)

Gusts

None

Visibility

No Significant Reductions

Sea Level Pressure

1011 hPa (Hectopascals)

Layers of Clouds

None

METAR SBRF 270200Z 32003KT CAVOK 23/21 Q1011

Weather Forecast

SBRF | Recife/Guararapes–Gilberto Freyre International Airport

Recife, Pernambuco, Brazil

Forecast valid for the next 21 Hours

From now on it is expected:

Partly Cloudy Sky

Moderate Winds from East

From now on it is expected 9 hours with intermittent periods of:

Rain, Mist

Maximum Temperature

29 ºC in 13 Hours

Minimum Temperature

24 ºC in 5 Hours

TAF SBRF 262030Z 2700/2724 11010KT 9999 SCT020 TN24/2708Z TX29/2716Z PROB30 TEMPO 2702/2712 4000 RA BR SCT012 RMK PGZ